createdAt,value
2019-01-26T00:01:32.218Z,-0.70
2019-01-26T00:04:22.348Z,-0.70
2019-01-26T00:07:12.310Z,-0.70
2019-01-26T00:10:02.061Z,-0.70
2019-01-26T00:12:52.960Z,-0.60
2019-01-26T00:15:43.282Z,-0.70
2019-01-26T00:18:33.351Z,-0.60
2019-01-26T00:21:23.084Z,-0.60
2019-01-26T00:24:13.281Z,-0.60
2019-01-26T00:27:02.901Z,-0.60
2019-01-26T00:29:51.937Z,-0.60
2019-01-26T00:32:41.420Z,-0.50
2019-01-26T00:35:30.831Z,-0.50
2019-01-26T00:38:23.698Z,-0.50
2019-01-26T00:41:13.730Z,-0.40
2019-01-26T00:44:03.289Z,-0.50
2019-01-26T00:46:53.069Z,-0.50
2019-01-26T00:49:43.251Z,-0.40
2019-01-26T00:52:33.232Z,-0.40
2019-01-26T00:55:23.140Z,-0.30
2019-01-26T00:58:12.990Z,-0.30
2019-01-26T01:01:02.799Z,-0.30
2019-01-26T01:03:52.227Z,-0.30
2019-01-26T01:06:42.149Z,-0.30
2019-01-26T01:09:32.230Z,-0.20
2019-01-26T01:12:22.488Z,-0.20
2019-01-26T01:15:12.927Z,-0.20
2019-01-26T01:18:02.986Z,-0.20
2019-01-26T01:20:53.130Z,-0.10
2019-01-26T01:23:43.179Z,-0.10
2019-01-26T01:26:33.472Z,-0.10
2019-01-26T01:29:24.379Z,-0.10
2019-01-26T01:32:14.226Z,0.00
2019-01-26T01:35:03.616Z,0.00
2019-01-26T01:37:53.708Z,0.00
2019-01-26T01:40:43.996Z,0.10
2019-01-26T01:43:33.647Z,0.10
2019-01-26T01:46:23.679Z,0.10
2019-01-26T01:49:13.485Z,0.20
2019-01-26T01:52:03.187Z,0.20
2019-01-26T01:54:53.067Z,0.20
2019-01-26T01:57:42.966Z,0.20
2019-01-26T02:00:32.658Z,0.30
2019-01-26T02:03:22.106Z,0.30
2019-01-26T02:06:11.888Z,0.40
2019-01-26T02:09:01.669Z,0.40
2019-01-26T02:11:53.005Z,0.40
2019-01-26T02:14:42.959Z,0.50
2019-01-26T02:17:32.671Z,0.50
2019-01-26T02:20:23.498Z,0.50
2019-01-26T02:23:13.356Z,0.60
2019-01-26T02:26:03.115Z,0.60
2019-01-26T02:28:53.801Z,0.60
2019-01-26T02:31:43.825Z,0.70
2019-01-26T02:34:33.597Z,0.70
2019-01-26T02:37:23.560Z,0.80
2019-01-26T02:40:13.896Z,0.80
2019-01-26T02:43:03.733Z,0.80
2019-01-26T02:45:53.626Z,0.90
2019-01-26T02:48:43.294Z,0.90
2019-01-26T02:51:33.469Z,0.90
2019-01-26T02:54:23.271Z,1.00
2019-01-26T02:57:14.068Z,1.00
2019-01-26T03:00:04.629Z,1.00
2019-01-26T03:02:55.620Z,1.10
2019-01-26T03:05:45.661Z,1.10
2019-01-26T03:08:35.474Z,1.20
2019-01-26T03:11:25.330Z,1.20
2019-01-26T03:14:15.089Z,1.20
2019-01-26T03:17:06.480Z,1.20
2019-01-26T03:19:56.510Z,1.30
2019-01-26T03:22:46.787Z,1.40
2019-01-26T03:25:36.437Z,1.40
2019-01-26T03:28:26.567Z,1.40
2019-01-26T03:31:16.334Z,1.40
2019-01-26T03:34:06.101Z,1.50
2019-01-26T03:36:59.167Z,1.50
2019-01-26T03:39:49.357Z,1.60
2019-01-26T03:42:39.083Z,1.70
2019-01-26T03:45:28.877Z,1.70
2019-01-26T03:48:18.699Z,1.70
2019-01-26T03:51:08.691Z,1.60
2019-01-26T03:53:58.054Z,1.60
2019-01-26T03:56:48.161Z,1.60
2019-01-26T03:59:37.889Z,1.60
2019-01-26T04:02:28.131Z,1.60
2019-01-26T04:05:17.892Z,1.60
2019-01-26T04:08:07.782Z,1.70
2019-01-26T04:10:57.438Z,1.80
2019-01-26T04:13:47.488Z,1.80
2019-01-26T04:16:37.114Z,1.90
2019-01-26T04:19:26.999Z,2.10
2019-01-26T04:22:16.871Z,2.20
2019-01-26T04:25:07.059Z,2.20
2019-01-26T04:27:57.372Z,2.20
2019-01-26T04:30:47.010Z,2.30
2019-01-26T04:33:36.739Z,2.30
2019-01-26T04:36:26.459Z,2.40
2019-01-26T04:39:16.158Z,2.40
2019-01-26T04:42:06.100Z,2.40
2019-01-26T04:44:55.823Z,2.50
2019-01-26T04:47:45.922Z,2.50
2019-01-26T04:50:35.878Z,2.40
2019-01-26T04:53:25.772Z,2.40
2019-01-26T04:56:15.508Z,2.40
2019-01-26T04:59:05.966Z,2.50
2019-01-26T05:01:55.932Z,2.50
2019-01-26T05:04:46.045Z,2.60
2019-01-26T05:07:37.419Z,2.70
2019-01-26T05:10:27.142Z,2.80
2019-01-26T05:13:17.102Z,2.70
2019-01-26T05:16:06.969Z,2.60
2019-01-26T05:18:56.961Z,2.70
2019-01-26T05:21:46.959Z,3.00
2019-01-26T05:24:37.241Z,3.00
2019-01-26T05:27:26.819Z,3.20
2019-01-26T05:30:19.302Z,3.10
2019-01-26T05:33:09.263Z,3.00
2019-01-26T05:35:59.204Z,3.20
2019-01-26T05:38:49.102Z,3.10
2019-01-26T05:41:39.089Z,3.20
2019-01-26T05:44:28.949Z,3.00
2019-01-26T05:47:18.950Z,2.90
2019-01-26T05:50:11.771Z,2.80
2019-01-26T05:53:01.670Z,2.80
2019-01-26T05:55:51.502Z,2.70
2019-01-26T05:58:41.219Z,2.70
2019-01-26T06:01:31.140Z,2.70
2019-01-26T06:04:21.101Z,2.80
2019-01-26T06:07:10.611Z,2.90
2019-01-26T06:10:00.481Z,3.00
2019-01-26T06:12:50.524Z,3.00
2019-01-26T06:15:40.852Z,2.90
2019-01-26T06:18:30.850Z,2.90
2019-01-26T06:21:20.949Z,2.90
2019-01-26T06:24:10.588Z,2.90
2019-01-26T06:27:00.462Z,3.00
2019-01-26T06:29:50.192Z,3.00
2019-01-26T06:32:40.231Z,3.00
2019-01-26T06:35:30.121Z,3.20
2019-01-26T06:38:20.502Z,3.30
2019-01-26T06:41:09.801Z,3.20
2019-01-26T06:43:59.618Z,3.20
2019-01-26T06:46:49.674Z,3.40
2019-01-26T06:49:39.498Z,3.40
2019-01-26T06:52:29.231Z,3.40
2019-01-26T06:55:18.770Z,3.50
2019-01-26T06:58:08.838Z,3.40
2019-01-26T07:00:58.838Z,3.60
2019-01-26T07:03:48.541Z,3.70
2019-01-26T07:06:45.664Z,4.00
2019-01-26T07:09:35.981Z,3.90
2019-01-26T07:12:26.107Z,4.10
2019-01-26T07:15:16.728Z,4.30
2019-01-26T07:18:09.646Z,4.20
2019-01-26T07:20:57.954Z,4.30
2019-01-26T07:23:48.219Z,4.30
2019-01-26T07:26:38.169Z,4.30
2019-01-26T07:29:30.882Z,4.40
2019-01-26T07:32:22.719Z,4.40
2019-01-26T07:35:23.583Z,4.30
2019-01-26T07:38:15.825Z,4.20
2019-01-26T07:41:06.718Z,4.30
2019-01-26T07:43:57.217Z,4.30
2019-01-26T07:46:47.671Z,4.40
2019-01-26T07:49:38.411Z,4.30
2019-01-26T07:52:28.571Z,4.30
2019-01-26T07:55:19.890Z,4.30
2019-01-26T07:58:10.032Z,4.20
2019-01-26T08:01:00.658Z,4.30
2019-01-26T08:03:51.240Z,4.30
2019-01-26T08:06:43.878Z,4.30
2019-01-26T08:09:35.109Z,4.30
2019-01-26T08:12:26.133Z,4.30
2019-01-26T08:15:19.299Z,4.30
2019-01-26T08:18:10.720Z,4.30
2019-01-26T08:21:00.698Z,4.40
2019-01-26T08:23:51.351Z,4.60
2019-01-26T08:26:41.674Z,4.60
2019-01-26T08:29:32.460Z,4.60
2019-01-26T08:32:22.359Z,4.60
2019-01-26T08:35:12.687Z,4.60
2019-01-26T08:38:02.520Z,4.60
2019-01-26T08:40:52.531Z,4.70
2019-01-26T08:43:42.353Z,4.80
2019-01-26T08:46:32.119Z,4.80
2019-01-26T08:49:22.957Z,4.70
2019-01-26T08:52:13.228Z,4.80
2019-01-26T08:55:04.708Z,4.90
2019-01-26T08:57:55.468Z,5.00
2019-01-26T09:00:46.447Z,5.10
2019-01-26T09:03:53.670Z,5.20
2019-01-26T09:06:49.406Z,5.20
2019-01-26T09:09:39.840Z,5.20
2019-01-26T09:12:30.333Z,5.20
2019-01-26T09:15:20.704Z,5.20
2019-01-26T09:18:10.791Z,5.20
2019-01-26T09:21:00.807Z,5.30
2019-01-26T09:23:50.437Z,5.40
2019-01-26T09:26:40.360Z,5.40
2019-01-26T09:29:33.447Z,5.50
2019-01-26T09:32:23.565Z,5.50
2019-01-26T09:35:13.770Z,5.40
2019-01-26T09:38:03.648Z,5.40
2019-01-26T09:40:53.579Z,5.50
2019-01-26T09:43:43.530Z,5.60
2019-01-26T09:46:33.094Z,5.50
2019-01-26T09:49:23.187Z,5.50
2019-01-26T09:52:13.170Z,5.60
2019-01-26T09:55:03.229Z,5.60
2019-01-26T09:57:53.454Z,5.60
2019-01-26T10:00:43.608Z,5.60
2019-01-26T10:03:33.571Z,5.70
2019-01-26T10:06:23.682Z,5.70
2019-01-26T10:09:13.817Z,5.70
2019-01-26T10:12:04.581Z,5.80
2019-01-26T10:14:54.784Z,5.80
2019-01-26T10:17:46.049Z,5.90
2019-01-26T10:20:39.173Z,5.90
2019-01-26T10:23:32.071Z,5.90
2019-01-26T10:26:22.540Z,6.00
2019-01-26T10:29:12.463Z,6.10
2019-01-26T10:32:05.198Z,6.00
2019-01-26T10:34:56.280Z,6.10
2019-01-26T10:37:46.573Z,6.10
2019-01-26T10:40:55.982Z,6.20
2019-01-26T10:43:49.558Z,6.20
2019-01-26T10:46:38.760Z,6.20
2019-01-26T10:49:28.513Z,6.30
2019-01-26T10:52:18.611Z,6.30
2019-01-26T10:55:10.212Z,6.40
2019-01-26T10:58:00.369Z,6.40
2019-01-26T11:00:50.773Z,6.40
2019-01-26T11:03:41.001Z,6.50
2019-01-26T11:06:31.063Z,6.50
2019-01-26T11:09:21.140Z,6.50
2019-01-26T11:12:10.839Z,6.60
2019-01-26T11:15:00.708Z,6.60
2019-01-26T11:17:50.528Z,6.60
2019-01-26T11:20:40.690Z,6.60
2019-01-26T11:23:30.638Z,6.60
2019-01-26T11:26:20.497Z,6.60
2019-01-26T11:29:10.291Z,6.50
2019-01-26T11:31:59.997Z,6.60
2019-01-26T11:34:49.990Z,6.50
2019-01-26T11:37:40.743Z,6.50
2019-01-26T11:40:34.414Z,6.60
2019-01-26T11:43:24.382Z,6.50
2019-01-26T11:46:39.707Z,6.50
2019-01-26T11:49:29.911Z,6.40
2019-01-26T11:52:20.145Z,6.50
2019-01-26T11:55:29.434Z,6.40
2019-01-26T11:58:19.499Z,6.40
2019-01-26T12:01:32.046Z,6.40
2019-01-26T12:04:36.459Z,6.40
2019-01-26T12:07:28.536Z,6.50
2019-01-26T12:10:18.240Z,6.40
2019-01-26T12:13:07.898Z,6.50
2019-01-26T12:15:57.811Z,6.50
2019-01-26T12:18:47.602Z,6.60
2019-01-26T12:21:37.469Z,6.60
2019-01-26T12:24:27.492Z,6.60
2019-01-26T12:27:17.442Z,6.70
2019-01-26T12:30:08.281Z,6.70
2019-01-26T12:32:58.312Z,6.70
2019-01-26T12:35:47.932Z,6.70
2019-01-26T12:38:38.071Z,6.70
2019-01-26T12:41:28.324Z,6.70
2019-01-26T12:44:18.496Z,6.70
2019-01-26T12:47:08.803Z,6.70
2019-01-26T12:49:59.284Z,6.80
2019-01-26T12:52:49.513Z,6.80
2019-01-26T12:55:39.842Z,6.70
2019-01-26T12:58:30.318Z,6.70
2019-01-26T13:01:20.295Z,6.80
2019-01-26T13:04:30.279Z,6.70
2019-01-26T13:07:20.729Z,6.70
2019-01-26T13:10:15.280Z,6.70
2019-01-26T13:13:05.798Z,6.70
2019-01-26T13:15:55.509Z,6.60
2019-01-26T13:18:45.441Z,6.70
2019-01-26T13:21:35.260Z,6.70
2019-01-26T13:24:25.511Z,6.70
2019-01-26T13:27:21.569Z,6.70
2019-01-26T13:30:15.453Z,6.70
2019-01-26T13:33:05.268Z,6.60
2019-01-26T13:35:54.940Z,6.60
2019-01-26T13:38:44.620Z,6.60
2019-01-26T13:41:34.417Z,6.60
2019-01-26T13:44:24.017Z,6.50
2019-01-26T13:47:14.251Z,6.50
2019-01-26T13:50:04.898Z,6.50
2019-01-26T13:52:54.659Z,6.50
2019-01-26T13:55:44.319Z,6.50
2019-01-26T13:58:33.996Z,6.50
2019-01-26T14:01:24.010Z,6.50
2019-01-26T14:04:13.862Z,6.40
2019-01-26T14:07:03.811Z,6.40
2019-01-26T14:09:53.552Z,6.30
2019-01-26T14:12:43.732Z,6.40
2019-01-26T14:15:33.602Z,6.40
2019-01-26T14:18:23.570Z,6.40
2019-01-26T14:21:13.569Z,6.30
2019-01-26T14:24:03.449Z,6.30
2019-01-26T14:26:53.637Z,6.20
2019-01-26T14:29:43.444Z,6.30
2019-01-26T14:32:33.297Z,6.20
2019-01-26T14:35:23.412Z,6.30
2019-01-26T14:38:12.979Z,6.20
2019-01-26T14:41:02.996Z,6.20
2019-01-26T14:43:52.951Z,6.20
2019-01-26T14:46:42.872Z,6.10
2019-01-26T14:49:32.933Z,6.10
2019-01-26T14:52:23.694Z,6.10
2019-01-26T14:55:16.679Z,6.10
2019-01-26T14:58:06.683Z,6.10
2019-01-26T15:00:56.642Z,6.10
2019-01-26T15:03:47.221Z,6.00
2019-01-26T15:06:37.089Z,6.00
2019-01-26T15:09:27.091Z,5.90
2019-01-26T15:12:17.070Z,6.00
2019-01-26T15:15:08.408Z,5.90
2019-01-26T15:17:58.082Z,5.90
2019-01-26T15:20:48.149Z,5.90
2019-01-26T15:23:37.954Z,5.90
2019-01-26T15:26:28.426Z,5.80
2019-01-26T15:29:18.127Z,5.80
2019-01-26T15:32:08.226Z,5.80
2019-01-26T15:34:58.735Z,5.80
2019-01-26T15:37:48.565Z,5.80
2019-01-26T15:40:38.838Z,5.80
2019-01-26T15:43:28.711Z,5.80
2019-01-26T15:46:19.176Z,5.80
2019-01-26T15:49:08.819Z,5.80
2019-01-26T15:51:58.790Z,5.80
2019-01-26T15:54:49.008Z,5.70
2019-01-26T15:57:43.440Z,5.80
2019-01-26T16:00:35.358Z,5.80
2019-01-26T16:03:25.578Z,5.80
2019-01-26T16:06:15.439Z,5.80
2019-01-26T16:09:07.348Z,5.80
2019-01-26T16:11:57.497Z,5.70
2019-01-26T16:14:47.561Z,5.80
2019-01-26T16:17:39.221Z,5.70
2019-01-26T16:20:29.132Z,5.80
2019-01-26T16:23:18.978Z,5.80
2019-01-26T16:26:08.954Z,5.70
2019-01-26T16:29:02.768Z,5.80
2019-01-26T16:31:54.482Z,5.70
2019-01-26T16:34:44.849Z,5.70
2019-01-26T16:37:34.921Z,5.70
2019-01-26T16:40:28.096Z,5.70
2019-01-26T16:43:17.668Z,5.70
2019-01-26T16:46:11.838Z,5.70
2019-01-26T16:49:03.041Z,5.70
2019-01-26T16:51:55.358Z,5.70
2019-01-26T16:54:49.638Z,5.70
2019-01-26T16:57:42.697Z,5.70
2019-01-26T17:00:42.342Z,5.70
2019-01-26T17:03:33.937Z,5.70
2019-01-26T17:06:25.410Z,5.70
2019-01-26T17:09:16.980Z,5.70
2019-01-26T17:12:09.054Z,5.70
2019-01-26T17:15:00.478Z,5.70
2019-01-26T17:17:52.527Z,5.70
2019-01-26T17:20:45.281Z,5.70
2019-01-26T17:23:38.128Z,5.60
2019-01-26T17:26:29.205Z,5.60
2019-01-26T17:29:19.968Z,5.70
2019-01-26T17:32:10.735Z,5.70
2019-01-26T17:35:01.041Z,5.60
2019-01-26T17:37:52.989Z,5.70
2019-01-26T17:40:46.048Z,5.60
2019-01-26T17:43:37.739Z,5.70
2019-01-26T17:46:28.896Z,5.60
2019-01-26T17:49:19.830Z,5.60
2019-01-26T17:52:10.368Z,5.60
2019-01-26T17:55:01.244Z,5.60
2019-01-26T17:57:51.784Z,5.60
2019-01-26T18:00:59.567Z,5.60
2019-01-26T18:03:49.677Z,5.60
2019-01-26T18:06:42.129Z,5.60
2019-01-26T18:09:32.017Z,5.60
2019-01-26T18:12:21.877Z,5.70
2019-01-26T18:15:13.462Z,5.60
2019-01-26T18:18:04.731Z,5.70
2019-01-26T18:20:54.809Z,5.70
2019-01-26T18:23:44.981Z,5.70
2019-01-26T18:26:35.230Z,5.60
2019-01-26T18:29:25.273Z,5.60
2019-01-26T18:32:15.326Z,5.60
2019-01-26T18:35:08.852Z,5.60
2019-01-26T18:38:03.896Z,5.70
2019-01-26T18:40:54.576Z,5.70
2019-01-26T18:43:45.430Z,5.70
2019-01-26T18:46:36.462Z,5.70
2019-01-26T18:49:26.820Z,5.70
2019-01-26T18:52:18.392Z,5.70
2019-01-26T18:55:08.707Z,5.70
2019-01-26T18:57:59.910Z,5.70
2019-01-26T19:00:51.462Z,5.70
2019-01-26T19:04:15.236Z,5.70
2019-01-26T19:07:05.640Z,5.70
2019-01-26T19:09:55.700Z,5.70
2019-01-26T19:12:46.554Z,5.70
2019-01-26T19:15:37.047Z,5.80
2019-01-26T19:18:28.109Z,5.80
2019-01-26T19:21:17.939Z,5.80
2019-01-26T19:24:07.697Z,5.90
2019-01-26T19:27:00.698Z,5.90
2019-01-26T19:29:50.771Z,5.90
2019-01-26T19:32:40.510Z,5.90
2019-01-26T19:35:30.519Z,5.90
2019-01-26T19:38:20.394Z,5.90
2019-01-26T19:41:14.858Z,5.80
2019-01-26T19:44:05.469Z,5.80
2019-01-26T19:46:55.940Z,5.80
2019-01-26T19:49:46.221Z,5.90
2019-01-26T19:52:36.518Z,5.80
2019-01-26T19:55:27.446Z,5.80
2019-01-26T19:58:18.202Z,5.80
2019-01-26T20:01:08.327Z,5.80
2019-01-26T20:03:57.992Z,5.80
2019-01-26T20:06:48.480Z,5.80
2019-01-26T20:09:38.289Z,5.80
2019-01-26T20:12:28.374Z,5.80
2019-01-26T20:15:19.931Z,5.80
2019-01-26T20:18:09.721Z,5.80
2019-01-26T20:20:59.556Z,5.90
2019-01-26T20:23:49.848Z,5.90
2019-01-26T20:26:40.308Z,6.00
2019-01-26T20:29:30.457Z,6.00
2019-01-26T20:32:20.097Z,6.00
2019-01-26T20:35:10.333Z,6.00
2019-01-26T20:38:00.099Z,6.10
2019-01-26T20:40:51.231Z,6.10
2019-01-26T20:43:41.283Z,6.10
2019-01-26T20:46:31.158Z,6.20
2019-01-26T20:49:20.922Z,6.20
2019-01-26T20:52:11.840Z,6.30
2019-01-26T20:55:02.045Z,6.40
2019-01-26T20:57:51.540Z,6.40
2019-01-26T21:00:41.712Z,6.40
2019-01-26T21:03:31.368Z,6.50
2019-01-26T21:06:21.371Z,6.50
2019-01-26T21:09:11.542Z,6.60
2019-01-26T21:12:01.964Z,6.60
2019-01-26T21:14:52.126Z,6.60
2019-01-26T21:17:42.338Z,6.60
2019-01-26T21:20:32.111Z,6.60
2019-01-26T21:23:21.772Z,6.60
2019-01-26T21:26:11.593Z,6.70
2019-01-26T21:29:01.678Z,6.60
2019-01-26T21:31:51.226Z,6.70
2019-01-26T21:34:41.108Z,6.70
2019-01-26T21:37:30.772Z,6.80
2019-01-26T21:40:25.422Z,6.80
2019-01-26T21:43:15.139Z,6.90
2019-01-26T21:46:05.762Z,6.90
2019-01-26T21:48:55.941Z,6.90
2019-01-26T21:51:46.341Z,6.90
2019-01-26T21:54:36.518Z,7.00
2019-01-26T21:57:28.571Z,7.00
2019-01-26T22:00:21.213Z,7.10
2019-01-26T22:03:11.178Z,7.10
2019-01-26T22:06:01.279Z,7.20
2019-01-26T22:08:50.951Z,7.20
2019-01-26T22:11:40.650Z,7.10
2019-01-26T22:14:30.278Z,7.10
2019-01-26T22:17:20.379Z,7.10
2019-01-26T22:20:13.231Z,7.10
2019-01-26T22:23:03.528Z,7.10
2019-01-26T22:25:53.224Z,7.10
2019-01-26T22:28:43.908Z,7.10
2019-01-26T22:31:33.970Z,7.10
2019-01-26T22:34:24.825Z,7.10
2019-01-26T22:37:15.077Z,7.20
2019-01-26T22:40:06.614Z,7.30
2019-01-26T22:42:56.163Z,7.30
2019-01-26T22:45:46.131Z,7.20
2019-01-26T22:48:36.972Z,7.20
2019-01-26T22:51:27.705Z,7.20
2019-01-26T22:54:18.071Z,7.30
2019-01-26T22:57:08.280Z,7.30
2019-01-26T23:00:03.952Z,7.20
2019-01-26T23:02:56.120Z,7.20
2019-01-26T23:06:48.446Z,7.30
2019-01-26T23:10:04.951Z,7.30
2019-01-26T23:13:41.734Z,7.20
2019-01-26T23:17:21.693Z,7.20
2019-01-26T23:20:28.912Z,7.30
2019-01-26T23:24:11.907Z,7.30
2019-01-26T23:27:42.673Z,7.30
2019-01-26T23:31:10.416Z,7.30
2019-01-26T23:34:00.295Z,7.30
2019-01-26T23:36:50.223Z,7.30
2019-01-26T23:39:41.084Z,7.30
2019-01-26T23:42:30.989Z,7.30
2019-01-26T23:45:21.259Z,7.30
2019-01-26T23:48:11.159Z,7.30
2019-01-26T23:51:01.109Z,7.30
2019-01-26T23:53:51.252Z,7.20
2019-01-26T23:56:41.753Z,7.20
2019-01-26T23:59:34.217Z,7.30
